sensor_id;sensor_type;location;lat;lon;timestamp;P1;durP1;ratioP1;P2;durP2;ratioP2
7729;SDS011;3908;52.310;7.230;2022-12-16T00:00:49;58.07;;;25.07;;
7729;SDS011;3908;52.310;7.230;2022-12-16T00:03:36;58.97;;;26.03;;
7729;SDS011;3908;52.310;7.230;2022-12-16T00:06:25;60.60;;;27.17;;
7729;SDS011;3908;52.310;7.230;2022-12-16T00:09:15;48.90;;;24.80;;
7729;SDS011;3908;52.310;7.230;2022-12-16T00:12:04;53.87;;;26.10;;
7729;SDS011;3908;52.310;7.230;2022-12-16T00:14:51;65.70;;;28.13;;
7729;SDS011;3908;52.310;7.230;2022-12-16T00:17:39;58.80;;;25.60;;
7729;SDS011;3908;52.310;7.230;2022-12-16T00:20:26;50.83;;;25.27;;
7729;SDS011;3908;52.310;7.230;2022-12-16T00:23:13;49.43;;;25.23;;
7729;SDS011;3908;52.310;7.230;2022-12-16T00:26:00;53.63;;;24.70;;
7729;SDS011;3908;52.310;7.230;2022-12-16T00:28:49;50.33;;;24.60;;
7729;SDS011;3908;52.310;7.230;2022-12-16T00:31:36;50.70;;;25.67;;
7729;SDS011;3908;52.310;7.230;2022-12-16T00:34:23;57.43;;;25.87;;
7729;SDS011;3908;52.310;7.230;2022-12-16T00:37:10;58.90;;;26.57;;
7729;SDS011;3908;52.310;7.230;2022-12-16T00:39:57;55.33;;;26.90;;
7729;SDS011;3908;52.310;7.230;2022-12-16T00:42:44;62.20;;;26.67;;
7729;SDS011;3908;52.310;7.230;2022-12-16T00:45:33;56.47;;;26.03;;
7729;SDS011;3908;52.310;7.230;2022-12-16T00:48:20;57.03;;;26.70;;
7729;SDS011;3908;52.310;7.230;2022-12-16T00:51:08;52.07;;;24.80;;
7729;SDS011;3908;52.310;7.230;2022-12-16T00:53:55;57.53;;;24.37;;
7729;SDS011;3908;52.310;7.230;2022-12-16T00:56:42;59.73;;;25.37;;
7729;SDS011;3908;52.310;7.230;2022-12-16T00:59:29;53.67;;;24.37;;
7729;SDS011;3908;52.310;7.230;2022-12-16T01:02:18;55.20;;;26.67;;
7729;SDS011;3908;52.310;7.230;2022-12-16T01:05:05;51.03;;;24.50;;
7729;SDS011;3908;52.310;7.230;2022-12-16T01:07:52;53.70;;;25.10;;
7729;SDS011;3908;52.310;7.230;2022-12-16T01:10:40;56.57;;;25.80;;
7729;SDS011;3908;52.310;7.230;2022-12-16T01:13:27;53.20;;;25.17;;
7729;SDS011;3908;52.310;7.230;2022-12-16T01:16:14;55.43;;;27.37;;
7729;SDS011;3908;52.310;7.230;2022-12-16T01:19:03;45.33;;;24.63;;
7729;SDS011;3908;52.310;7.230;2022-12-16T01:21:50;53.00;;;25.17;;
7729;SDS011;3908;52.310;7.230;2022-12-16T01:24:37;47.57;;;24.47;;
7729;SDS011;3908;52.310;7.230;2022-12-16T01:27:24;47.73;;;24.57;;
7729;SDS011;3908;52.310;7.230;2022-12-16T01:30:11;51.83;;;25.27;;
7729;SDS011;3908;52.310;7.230;2022-12-16T01:32:59;43.77;;;24.53;;
7729;SDS011;3908;52.310;7.230;2022-12-16T01:35:47;49.93;;;24.10;;
7729;SDS011;3908;52.310;7.230;2022-12-16T01:38:34;47.83;;;25.90;;
7729;SDS011;3908;52.310;7.230;2022-12-16T01:41:22;47.13;;;24.27;;
7729;SDS011;3908;52.310;7.230;2022-12-16T01:44:11;47.77;;;24.30;;
7729;SDS011;3908;52.310;7.230;2022-12-16T01:47:00;51.83;;;24.73;;
7729;SDS011;3908;52.310;7.230;2022-12-16T01:49:51;47.20;;;24.60;;
7729;SDS011;3908;52.310;7.230;2022-12-16T01:52:44;51.70;;;24.27;;
7729;SDS011;3908;52.310;7.230;2022-12-16T01:55:37;50.90;;;24.00;;
7729;SDS011;3908;52.310;7.230;2022-12-16T01:58:29;46.43;;;23.60;;
7729;SDS011;3908;52.310;7.230;2022-12-16T02:01:19;53.20;;;26.53;;
7729;SDS011;3908;52.310;7.230;2022-12-16T02:04:07;45.83;;;23.47;;
7729;SDS011;3908;52.310;7.230;2022-12-16T02:06:54;50.27;;;24.17;;
7729;SDS011;3908;52.310;7.230;2022-12-16T02:09:43;50.00;;;24.40;;
7729;SDS011;3908;52.310;7.230;2022-12-16T02:12:32;51.00;;;25.97;;
7729;SDS011;3908;52.310;7.230;2022-12-16T02:15:33;54.40;;;25.53;;
7729;SDS011;3908;52.310;7.230;2022-12-16T02:18:30;54.27;;;25.07;;
7729;SDS011;3908;52.310;7.230;2022-12-16T02:24:40;48.30;;;24.37;;
7729;SDS011;3908;52.310;7.230;2022-12-16T02:28:00;45.93;;;24.87;;
7729;SDS011;3908;52.310;7.230;2022-12-16T02:30:55;46.20;;;24.07;;
7729;SDS011;3908;52.310;7.230;2022-12-16T02:34:01;44.43;;;23.73;;
7729;SDS011;3908;52.310;7.230;2022-12-16T02:36:58;47.27;;;24.17;;
7729;SDS011;3908;52.310;7.230;2022-12-16T02:39:57;53.37;;;24.97;;
7729;SDS011;3908;52.310;7.230;2022-12-16T02:42:48;53.10;;;25.53;;
7729;SDS011;3908;52.310;7.230;2022-12-16T02:45:39;51.60;;;26.80;;
7729;SDS011;3908;52.310;7.230;2022-12-16T02:48:28;52.43;;;26.30;;
7729;SDS011;3908;52.310;7.230;2022-12-16T02:51:15;49.10;;;24.97;;
7729;SDS011;3908;52.310;7.230;2022-12-16T02:54:04;54.17;;;25.03;;
7729;SDS011;3908;52.310;7.230;2022-12-16T02:56:57;49.80;;;26.77;;
7729;SDS011;3908;52.310;7.230;2022-12-16T02:59:59;44.10;;;23.17;;
7729;SDS011;3908;52.310;7.230;2022-12-16T03:02:52;52.73;;;25.63;;
7729;SDS011;3908;52.310;7.230;2022-12-16T03:05:44;48.23;;;24.73;;
7729;SDS011;3908;52.310;7.230;2022-12-16T03:08:35;50.87;;;26.30;;
7729;SDS011;3908;52.310;7.230;2022-12-16T03:11:26;50.33;;;24.17;;
7729;SDS011;3908;52.310;7.230;2022-12-16T03:14:16;51.43;;;24.63;;
7729;SDS011;3908;52.310;7.230;2022-12-16T03:17:05;49.73;;;23.97;;
7729;SDS011;3908;52.310;7.230;2022-12-16T03:19:55;55.10;;;25.03;;
7729;SDS011;3908;52.310;7.230;2022-12-16T03:22:51;49.63;;;25.17;;
7729;SDS011;3908;52.310;7.230;2022-12-16T03:25:42;44.13;;;23.87;;
7729;SDS011;3908;52.310;7.230;2022-12-16T03:28:36;53.10;;;24.40;;
7729;SDS011;3908;52.310;7.230;2022-12-16T03:31:31;54.97;;;24.87;;
7729;SDS011;3908;52.310;7.230;2022-12-16T03:34:25;47.33;;;23.33;;
7729;SDS011;3908;52.310;7.230;2022-12-16T03:37:18;53.60;;;23.83;;
7729;SDS011;3908;52.310;7.230;2022-12-16T03:40:09;49.93;;;25.23;;
7729;SDS011;3908;52.310;7.230;2022-12-16T03:42:58;45.13;;;24.27;;
7729;SDS011;3908;52.310;7.230;2022-12-16T03:45:48;44.80;;;23.40;;
7729;SDS011;3908;52.310;7.230;2022-12-16T03:48:43;53.97;;;26.37;;
7729;SDS011;3908;52.310;7.230;2022-12-16T03:51:31;41.60;;;22.83;;
7729;SDS011;3908;52.310;7.230;2022-12-16T03:54:18;52.47;;;25.80;;
7729;SDS011;3908;52.310;7.230;2022-12-16T03:57:06;43.77;;;23.03;;
7729;SDS011;3908;52.310;7.230;2022-12-16T03:59:53;53.83;;;24.10;;
7729;SDS011;3908;52.310;7.230;2022-12-16T04:02:40;50.70;;;23.27;;
7729;SDS011;3908;52.310;7.230;2022-12-16T04:05:28;50.23;;;26.30;;
7729;SDS011;3908;52.310;7.230;2022-12-16T04:08:15;46.73;;;24.80;;
7729;SDS011;3908;52.310;7.230;2022-12-16T04:11:02;48.50;;;23.33;;
7729;SDS011;3908;52.310;7.230;2022-12-16T04:14:07;42.87;;;23.00;;
7729;SDS011;3908;52.310;7.230;2022-12-16T04:17:12;46.33;;;22.83;;
7729;SDS011;3908;52.310;7.230;2022-12-16T04:20:17;45.30;;;23.17;;
7729;SDS011;3908;52.310;7.230;2022-12-16T04:23:22;48.57;;;23.77;;
7729;SDS011;3908;52.310;7.230;2022-12-16T04:26:29;45.93;;;25.00;;
7729;SDS011;3908;52.310;7.230;2022-12-16T04:29:38;47.13;;;23.50;;
7729;SDS011;3908;52.310;7.230;2022-12-16T04:32:49;42.00;;;21.87;;
7729;SDS011;3908;52.310;7.230;2022-12-16T04:35:56;44.23;;;22.50;;
7729;SDS011;3908;52.310;7.230;2022-12-16T04:39:01;50.40;;;22.80;;
7729;SDS011;3908;52.310;7.230;2022-12-16T04:42:06;44.07;;;23.50;;
7729;SDS011;3908;52.310;7.230;2022-12-16T04:45:12;50.30;;;23.57;;
7729;SDS011;3908;52.310;7.230;2022-12-16T04:48:16;51.93;;;22.30;;
7729;SDS011;3908;52.310;7.230;2022-12-16T04:51:20;55.10;;;24.47;;
7729;SDS011;3908;52.310;7.230;2022-12-16T04:54:25;42.90;;;22.27;;
7729;SDS011;3908;52.310;7.230;2022-12-16T04:57:29;45.33;;;24.17;;
7729;SDS011;3908;52.310;7.230;2022-12-16T05:00:35;52.93;;;23.57;;
7729;SDS011;3908;52.310;7.230;2022-12-16T05:03:39;41.63;;;21.83;;
7729;SDS011;3908;52.310;7.230;2022-12-16T05:06:43;48.57;;;24.47;;
7729;SDS011;3908;52.310;7.230;2022-12-16T05:09:48;42.70;;;22.10;;
7729;SDS011;3908;52.310;7.230;2022-12-16T05:12:52;50.73;;;21.57;;
7729;SDS011;3908;52.310;7.230;2022-12-16T05:15:58;44.73;;;21.90;;
7729;SDS011;3908;52.310;7.230;2022-12-16T05:19:02;42.37;;;21.67;;
7729;SDS011;3908;52.310;7.230;2022-12-16T05:22:07;46.60;;;20.70;;
7729;SDS011;3908;52.310;7.230;2022-12-16T05:25:11;48.37;;;22.27;;
7729;SDS011;3908;52.310;7.230;2022-12-16T05:28:15;43.40;;;21.43;;
7729;SDS011;3908;52.310;7.230;2022-12-16T05:31:21;44.13;;;21.13;;
7729;SDS011;3908;52.310;7.230;2022-12-16T05:34:25;46.50;;;21.90;;
7729;SDS011;3908;52.310;7.230;2022-12-16T05:37:30;41.40;;;22.53;;
7729;SDS011;3908;52.310;7.230;2022-12-16T05:40:34;52.93;;;22.47;;
7729;SDS011;3908;52.310;7.230;2022-12-16T05:43:38;48.90;;;21.70;;
7729;SDS011;3908;52.310;7.230;2022-12-16T05:46:44;40.17;;;21.57;;
7729;SDS011;3908;52.310;7.230;2022-12-16T05:49:48;44.63;;;21.37;;
7729;SDS011;3908;52.310;7.230;2022-12-16T05:52:53;46.10;;;21.60;;
7729;SDS011;3908;52.310;7.230;2022-12-16T05:55:58;51.47;;;23.97;;
7729;SDS011;3908;52.310;7.230;2022-12-16T05:59:02;50.80;;;23.30;;
7729;SDS011;3908;52.310;7.230;2022-12-16T06:02:08;49.43;;;23.10;;
7729;SDS011;3908;52.310;7.230;2022-12-16T06:05:24;49.90;;;21.43;;
7729;SDS011;3908;52.310;7.230;2022-12-16T06:08:28;47.83;;;23.30;;
7729;SDS011;3908;52.310;7.230;2022-12-16T06:11:33;47.30;;;22.83;;
7729;SDS011;3908;52.310;7.230;2022-12-16T06:14:38;46.00;;;23.33;;
7729;SDS011;3908;52.310;7.230;2022-12-16T06:17:47;46.13;;;21.23;;
7729;SDS011;3908;52.310;7.230;2022-12-16T06:20:53;46.90;;;24.07;;
7729;SDS011;3908;52.310;7.230;2022-12-16T06:23:57;44.00;;;21.30;;
7729;SDS011;3908;52.310;7.230;2022-12-16T06:27:02;49.00;;;22.87;;
7729;SDS011;3908;52.310;7.230;2022-12-16T06:30:09;45.07;;;23.43;;
7729;SDS011;3908;52.310;7.230;2022-12-16T06:33:15;47.43;;;24.07;;
7729;SDS011;3908;52.310;7.230;2022-12-16T06:36:19;59.90;;;27.43;;
7729;SDS011;3908;52.310;7.230;2022-12-16T06:39:24;49.90;;;24.70;;
7729;SDS011;3908;52.310;7.230;2022-12-16T06:42:28;49.63;;;25.33;;
7729;SDS011;3908;52.310;7.230;2022-12-16T06:45:32;48.60;;;25.10;;
7729;SDS011;3908;52.310;7.230;2022-12-16T06:48:38;46.70;;;26.53;;
7729;SDS011;3908;52.310;7.230;2022-12-16T06:51:42;47.90;;;25.87;;
7729;SDS011;3908;52.310;7.230;2022-12-16T06:54:46;50.97;;;26.50;;
7729;SDS011;3908;52.310;7.230;2022-12-16T06:57:55;58.43;;;27.47;;
7729;SDS011;3908;52.310;7.230;2022-12-16T07:01:00;52.33;;;24.87;;
7729;SDS011;3908;52.310;7.230;2022-12-16T07:04:03;48.63;;;25.07;;
7729;SDS011;3908;52.310;7.230;2022-12-16T07:07:07;46.43;;;24.70;;
7729;SDS011;3908;52.310;7.230;2022-12-16T07:10:15;49.73;;;25.20;;
7729;SDS011;3908;52.310;7.230;2022-12-16T07:13:20;58.10;;;27.17;;
7729;SDS011;3908;52.310;7.230;2022-12-16T07:16:24;53.87;;;24.97;;
7729;SDS011;3908;52.310;7.230;2022-12-16T07:19:30;51.20;;;24.53;;
7729;SDS011;3908;52.310;7.230;2022-12-16T07:22:34;55.77;;;26.73;;
7729;SDS011;3908;52.310;7.230;2022-12-16T07:25:39;50.93;;;25.63;;
7729;SDS011;3908;52.310;7.230;2022-12-16T07:28:44;53.23;;;26.87;;
7729;SDS011;3908;52.310;7.230;2022-12-16T07:31:48;58.27;;;25.70;;
7729;SDS011;3908;52.310;7.230;2022-12-16T07:35:03;53.33;;;25.67;;
7729;SDS011;3908;52.310;7.230;2022-12-16T07:38:08;49.93;;;25.47;;
7729;SDS011;3908;52.310;7.230;2022-12-16T07:41:13;51.73;;;28.07;;
7729;SDS011;3908;52.310;7.230;2022-12-16T07:44:18;45.83;;;25.80;;
7729;SDS011;3908;52.310;7.230;2022-12-16T07:47:22;49.13;;;25.43;;
7729;SDS011;3908;52.310;7.230;2022-12-16T07:50:28;53.00;;;26.10;;
7729;SDS011;3908;52.310;7.230;2022-12-16T07:53:33;54.73;;;25.37;;
7729;SDS011;3908;52.310;7.230;2022-12-16T07:56:37;52.77;;;25.43;;
7729;SDS011;3908;52.310;7.230;2022-12-16T07:59:42;61.30;;;27.60;;
7729;SDS011;3908;52.310;7.230;2022-12-16T08:02:50;50.67;;;25.60;;
7729;SDS011;3908;52.310;7.230;2022-12-16T08:05:57;49.37;;;25.77;;
7729;SDS011;3908;52.310;7.230;2022-12-16T08:09:02;57.93;;;27.17;;
7729;SDS011;3908;52.310;7.230;2022-12-16T08:12:07;57.10;;;27.17;;
7729;SDS011;3908;52.310;7.230;2022-12-16T08:15:11;54.40;;;26.27;;
7729;SDS011;3908;52.310;7.230;2022-12-16T08:18:15;52.30;;;25.80;;
7729;SDS011;3908;52.310;7.230;2022-12-16T08:21:21;54.97;;;27.27;;
7729;SDS011;3908;52.310;7.230;2022-12-16T08:24:26;52.70;;;24.87;;
7729;SDS011;3908;52.310;7.230;2022-12-16T08:27:30;59.03;;;24.20;;
7729;SDS011;3908;52.310;7.230;2022-12-16T08:30:34;63.17;;;28.20;;
7729;SDS011;3908;52.310;7.230;2022-12-16T08:33:39;53.97;;;27.00;;
7729;SDS011;3908;52.310;7.230;2022-12-16T08:36:45;53.93;;;26.87;;
7729;SDS011;3908;52.310;7.230;2022-12-16T08:39:49;60.50;;;29.03;;
7729;SDS011;3908;52.310;7.230;2022-12-16T08:42:54;63.27;;;27.73;;
7729;SDS011;3908;52.310;7.230;2022-12-16T08:45:59;64.03;;;28.30;;
7729;SDS011;3908;52.310;7.230;2022-12-16T08:49:04;59.40;;;29.20;;
7729;SDS011;3908;52.310;7.230;2022-12-16T08:52:10;58.00;;;28.53;;
7729;SDS011;3908;52.310;7.230;2022-12-16T08:55:15;56.03;;;27.97;;
7729;SDS011;3908;52.310;7.230;2022-12-16T08:58:20;58.90;;;28.67;;
7729;SDS011;3908;52.310;7.230;2022-12-16T09:01:25;57.80;;;28.57;;
7729;SDS011;3908;52.310;7.230;2022-12-16T09:04:29;54.27;;;27.07;;
7729;SDS011;3908;52.310;7.230;2022-12-16T09:07:35;57.90;;;28.00;;
7729;SDS011;3908;52.310;7.230;2022-12-16T09:10:39;58.13;;;27.87;;
7729;SDS011;3908;52.310;7.230;2022-12-16T09:13:44;53.10;;;25.80;;
7729;SDS011;3908;52.310;7.230;2022-12-16T09:16:49;58.47;;;29.23;;
7729;SDS011;3908;52.310;7.230;2022-12-16T09:19:53;64.47;;;29.03;;
7729;SDS011;3908;52.310;7.230;2022-12-16T09:23:01;57.63;;;29.13;;
7729;SDS011;3908;52.310;7.230;2022-12-16T09:26:06;60.07;;;28.20;;
7729;SDS011;3908;52.310;7.230;2022-12-16T09:29:11;64.30;;;29.17;;
7729;SDS011;3908;52.310;7.230;2022-12-16T09:32:15;61.27;;;28.03;;
7729;SDS011;3908;52.310;7.230;2022-12-16T09:35:19;59.03;;;26.90;;
7729;SDS011;3908;52.310;7.230;2022-12-16T09:38:25;56.73;;;28.83;;
7729;SDS011;3908;52.310;7.230;2022-12-16T09:41:34;64.60;;;28.50;;
7729;SDS011;3908;52.310;7.230;2022-12-16T09:44:46;60.33;;;28.40;;
7729;SDS011;3908;52.310;7.230;2022-12-16T09:48:02;64.07;;;27.73;;
7729;SDS011;3908;52.310;7.230;2022-12-16T09:51:13;58.30;;;27.83;;
7729;SDS011;3908;52.310;7.230;2022-12-16T09:54:22;64.60;;;29.83;;
7729;SDS011;3908;52.310;7.230;2022-12-16T09:57:38;61.27;;;28.70;;
7729;SDS011;3908;52.310;7.230;2022-12-16T10:00:43;63.30;;;28.03;;
7729;SDS011;3908;52.310;7.230;2022-12-16T10:03:48;61.07;;;28.97;;
7729;SDS011;3908;52.310;7.230;2022-12-16T10:06:53;54.43;;;29.37;;
7729;SDS011;3908;52.310;7.230;2022-12-16T10:10:05;57.03;;;28.93;;
7729;SDS011;3908;52.310;7.230;2022-12-16T10:13:21;59.90;;;28.53;;
7729;SDS011;3908;52.310;7.230;2022-12-16T10:16:35;58.67;;;26.90;;
7729;SDS011;3908;52.310;7.230;2022-12-16T10:19:50;69.73;;;28.87;;
7729;SDS011;3908;52.310;7.230;2022-12-16T10:23:03;56.37;;;27.93;;
7729;SDS011;3908;52.310;7.230;2022-12-16T10:26:16;50.67;;;27.73;;
7729;SDS011;3908;52.310;7.230;2022-12-16T10:29:27;60.07;;;29.17;;
7729;SDS011;3908;52.310;7.230;2022-12-16T10:32:37;59.30;;;26.73;;
7729;SDS011;3908;52.310;7.230;2022-12-16T10:35:46;63.87;;;27.90;;
7729;SDS011;3908;52.310;7.230;2022-12-16T10:38:56;61.50;;;29.30;;
7729;SDS011;3908;52.310;7.230;2022-12-16T10:42:05;67.63;;;29.67;;
7729;SDS011;3908;52.310;7.230;2022-12-16T10:45:22;58.27;;;26.67;;
7729;SDS011;3908;52.310;7.230;2022-12-16T10:48:42;55.13;;;26.33;;
7729;SDS011;3908;52.310;7.230;2022-12-16T10:51:47;56.13;;;26.53;;
7729;SDS011;3908;52.310;7.230;2022-12-16T10:54:55;57.83;;;26.93;;
7729;SDS011;3908;52.310;7.230;2022-12-16T10:58:05;62.73;;;28.30;;
7729;SDS011;3908;52.310;7.230;2022-12-16T11:01:20;62.10;;;27.43;;
7729;SDS011;3908;52.310;7.230;2022-12-16T11:04:27;67.27;;;30.67;;
7729;SDS011;3908;52.310;7.230;2022-12-16T11:07:33;70.83;;;30.83;;
7729;SDS011;3908;52.310;7.230;2022-12-16T11:10:40;68.20;;;30.17;;
7729;SDS011;3908;52.310;7.230;2022-12-16T11:13:48;59.93;;;31.50;;
7729;SDS011;3908;52.310;7.230;2022-12-16T11:17:06;65.23;;;29.90;;
7729;SDS011;3908;52.310;7.230;2022-12-16T11:20:16;73.33;;;30.40;;
7729;SDS011;3908;52.310;7.230;2022-12-16T11:23:23;79.73;;;31.37;;
7729;SDS011;3908;52.310;7.230;2022-12-16T11:26:28;78.83;;;32.30;;
7729;SDS011;3908;52.310;7.230;2022-12-16T11:29:34;74.50;;;30.73;;
7729;SDS011;3908;52.310;7.230;2022-12-16T11:32:53;70.20;;;29.03;;
7729;SDS011;3908;52.310;7.230;2022-12-16T11:36:04;70.03;;;29.40;;
7729;SDS011;3908;52.310;7.230;2022-12-16T11:39:14;77.37;;;32.57;;
7729;SDS011;3908;52.310;7.230;2022-12-16T11:42:21;87.03;;;32.43;;
7729;SDS011;3908;52.310;7.230;2022-12-16T11:45:29;68.03;;;30.10;;
7729;SDS011;3908;52.310;7.230;2022-12-16T11:48:46;90.63;;;31.60;;
7729;SDS011;3908;52.310;7.230;2022-12-16T11:51:54;72.03;;;31.23;;
7729;SDS011;3908;52.310;7.230;2022-12-16T11:55:06;76.50;;;29.70;;
7729;SDS011;3908;52.310;7.230;2022-12-16T11:58:20;82.57;;;31.83;;
7729;SDS011;3908;52.310;7.230;2022-12-16T12:01:33;77.00;;;30.83;;
7729;SDS011;3908;52.310;7.230;2022-12-16T12:04:39;73.23;;;30.17;;
7729;SDS011;3908;52.310;7.230;2022-12-16T12:07:46;95.10;;;32.67;;
7729;SDS011;3908;52.310;7.230;2022-12-16T12:11:01;67.73;;;30.70;;
7729;SDS011;3908;52.310;7.230;2022-12-16T12:14:13;75.97;;;32.97;;
7729;SDS011;3908;52.310;7.230;2022-12-16T12:17:28;82.63;;;32.13;;
7729;SDS011;3908;52.310;7.230;2022-12-16T12:20:53;88.23;;;33.07;;
7729;SDS011;3908;52.310;7.230;2022-12-16T12:24:07;83.60;;;32.40;;
7729;SDS011;3908;52.310;7.230;2022-12-16T12:27:24;81.20;;;30.17;;
7729;SDS011;3908;52.310;7.230;2022-12-16T12:30:40;93.17;;;33.63;;
7729;SDS011;3908;52.310;7.230;2022-12-16T12:33:57;90.33;;;31.77;;
7729;SDS011;3908;52.310;7.230;2022-12-16T12:37:09;95.57;;;34.10;;
7729;SDS011;3908;52.310;7.230;2022-12-16T12:40:27;87.33;;;32.70;;
7729;SDS011;3908;52.310;7.230;2022-12-16T12:43:50;79.00;;;31.40;;
7729;SDS011;3908;52.310;7.230;2022-12-16T12:47:01;82.20;;;32.13;;
7729;SDS011;3908;52.310;7.230;2022-12-16T12:50:11;76.80;;;30.10;;
7729;SDS011;3908;52.310;7.230;2022-12-16T12:53:22;98.20;;;33.47;;
7729;SDS011;3908;52.310;7.230;2022-12-16T12:56:46;78.07;;;31.67;;
7729;SDS011;3908;52.310;7.230;2022-12-16T12:59:54;100.63;;;32.60;;
7729;SDS011;3908;52.310;7.230;2022-12-16T13:03:04;93.37;;;33.97;;
7729;SDS011;3908;52.310;7.230;2022-12-16T13:06:17;81.20;;;32.10;;
7729;SDS011;3908;52.310;7.230;2022-12-16T13:09:24;79.03;;;29.73;;
7729;SDS011;3908;52.310;7.230;2022-12-16T13:12:33;87.50;;;32.97;;
7729;SDS011;3908;52.310;7.230;2022-12-16T13:15:38;94.67;;;30.70;;
7729;SDS011;3908;52.310;7.230;2022-12-16T13:18:42;87.10;;;32.93;;
7729;SDS011;3908;52.310;7.230;2022-12-16T13:21:49;87.77;;;31.70;;
7729;SDS011;3908;52.310;7.230;2022-12-16T13:24:53;92.57;;;31.27;;
7729;SDS011;3908;52.310;7.230;2022-12-16T13:27:58;94.50;;;30.83;;
7729;SDS011;3908;52.310;7.230;2022-12-16T13:31:18;99.87;;;32.17;;
7729;SDS011;3908;52.310;7.230;2022-12-16T13:34:26;90.67;;;31.23;;
7729;SDS011;3908;52.310;7.230;2022-12-16T13:37:33;73.93;;;30.43;;
7729;SDS011;3908;52.310;7.230;2022-12-16T13:40:52;90.13;;;33.00;;
7729;SDS011;3908;52.310;7.230;2022-12-16T13:43:59;85.37;;;29.93;;
7729;SDS011;3908;52.310;7.230;2022-12-16T13:47:15;82.50;;;30.13;;
7729;SDS011;3908;52.310;7.230;2022-12-16T13:50:35;80.60;;;27.40;;
7729;SDS011;3908;52.310;7.230;2022-12-16T13:53:45;71.27;;;27.67;;
7729;SDS011;3908;52.310;7.230;2022-12-16T13:56:52;76.30;;;28.80;;
7729;SDS011;3908;52.310;7.230;2022-12-16T13:59:58;80.27;;;31.60;;
7729;SDS011;3908;52.310;7.230;2022-12-16T14:03:07;83.97;;;32.97;;
7729;SDS011;3908;52.310;7.230;2022-12-16T14:06:17;77.23;;;29.10;;
7729;SDS011;3908;52.310;7.230;2022-12-16T14:09:31;81.00;;;30.67;;
7729;SDS011;3908;52.310;7.230;2022-12-16T14:12:45;75.17;;;28.13;;
7729;SDS011;3908;52.310;7.230;2022-12-16T14:16:00;85.53;;;29.13;;
7729;SDS011;3908;52.310;7.230;2022-12-16T14:19:24;75.30;;;27.30;;
7729;SDS011;3908;52.310;7.230;2022-12-16T14:22:45;82.30;;;29.57;;
7729;SDS011;3908;52.310;7.230;2022-12-16T14:25:59;75.63;;;27.70;;
7729;SDS011;3908;52.310;7.230;2022-12-16T14:29:11;86.20;;;30.77;;
7729;SDS011;3908;52.310;7.230;2022-12-16T14:32:25;88.10;;;31.07;;
7729;SDS011;3908;52.310;7.230;2022-12-16T14:35:31;80.97;;;30.90;;
7729;SDS011;3908;52.310;7.230;2022-12-16T14:38:35;91.80;;;32.17;;
7729;SDS011;3908;52.310;7.230;2022-12-16T14:41:41;84.43;;;30.93;;
7729;SDS011;3908;52.310;7.230;2022-12-16T14:44:53;80.97;;;31.00;;
7729;SDS011;3908;52.310;7.230;2022-12-16T14:48:12;83.97;;;33.13;;
7729;SDS011;3908;52.310;7.230;2022-12-16T14:51:29;75.27;;;32.67;;
7729;SDS011;3908;52.310;7.230;2022-12-16T14:54:35;85.97;;;32.23;;
7729;SDS011;3908;52.310;7.230;2022-12-16T14:57:42;95.90;;;32.57;;
7729;SDS011;3908;52.310;7.230;2022-12-16T15:00:46;91.73;;;32.17;;
7729;SDS011;3908;52.310;7.230;2022-12-16T15:03:52;73.23;;;30.77;;
7729;SDS011;3908;52.310;7.230;2022-12-16T15:06:56;83.70;;;32.80;;
7729;SDS011;3908;52.310;7.230;2022-12-16T15:10:02;84.93;;;31.27;;
7729;SDS011;3908;52.310;7.230;2022-12-16T15:13:11;88.60;;;32.80;;
7729;SDS011;3908;52.310;7.230;2022-12-16T15:16:21;84.90;;;30.27;;
7729;SDS011;3908;52.310;7.230;2022-12-16T15:19:35;94.33;;;33.20;;
7729;SDS011;3908;52.310;7.230;2022-12-16T15:22:43;82.07;;;31.40;;
7729;SDS011;3908;52.310;7.230;2022-12-16T15:25:52;86.87;;;31.20;;
7729;SDS011;3908;52.310;7.230;2022-12-16T15:29:02;100.10;;;33.30;;
7729;SDS011;3908;52.310;7.230;2022-12-16T15:32:21;85.97;;;31.70;;
7729;SDS011;3908;52.310;7.230;2022-12-16T15:35:31;87.43;;;32.00;;
7729;SDS011;3908;52.310;7.230;2022-12-16T15:38:39;83.93;;;29.43;;
7729;SDS011;3908;52.310;7.230;2022-12-16T15:41:45;88.00;;;31.33;;
7729;SDS011;3908;52.310;7.230;2022-12-16T15:44:51;77.93;;;29.00;;
7729;SDS011;3908;52.310;7.230;2022-12-16T15:47:56;94.50;;;31.07;;
7729;SDS011;3908;52.310;7.230;2022-12-16T15:51:01;76.37;;;30.37;;
7729;SDS011;3908;52.310;7.230;2022-12-16T15:54:11;98.97;;;31.47;;
7729;SDS011;3908;52.310;7.230;2022-12-16T15:57:26;81.00;;;31.73;;
7729;SDS011;3908;52.310;7.230;2022-12-16T16:00:33;84.50;;;31.63;;
7729;SDS011;3908;52.310;7.230;2022-12-16T16:03:38;83.27;;;30.03;;
7729;SDS011;3908;52.310;7.230;2022-12-16T16:06:44;95.20;;;32.53;;
7729;SDS011;3908;52.310;7.230;2022-12-16T16:09:51;82.90;;;32.63;;
7729;SDS011;3908;52.310;7.230;2022-12-16T16:13:11;96.07;;;38.23;;
7729;SDS011;3908;52.310;7.230;2022-12-16T16:16:17;103.80;;;36.27;;
7729;SDS011;3908;52.310;7.230;2022-12-16T16:19:23;77.47;;;30.80;;
7729;SDS011;3908;52.310;7.230;2022-12-16T16:22:28;77.70;;;29.80;;
7729;SDS011;3908;52.310;7.230;2022-12-16T16:25:33;72.10;;;28.53;;
7729;SDS011;3908;52.310;7.230;2022-12-16T16:28:38;78.60;;;30.53;;
7729;SDS011;3908;52.310;7.230;2022-12-16T16:31:44;89.27;;;33.47;;
7729;SDS011;3908;52.310;7.230;2022-12-16T16:34:59;86.07;;;32.63;;
7729;SDS011;3908;52.310;7.230;2022-12-16T16:38:04;79.33;;;30.57;;
7729;SDS011;3908;52.310;7.230;2022-12-16T16:41:09;82.47;;;32.63;;
7729;SDS011;3908;52.310;7.230;2022-12-16T16:44:17;92.00;;;34.40;;
7729;SDS011;3908;52.310;7.230;2022-12-16T16:47:23;96.43;;;34.13;;
7729;SDS011;3908;52.310;7.230;2022-12-16T16:50:28;96.80;;;35.27;;
7729;SDS011;3908;52.310;7.230;2022-12-16T16:53:32;99.23;;;32.97;;
7729;SDS011;3908;52.310;7.230;2022-12-16T16:56:36;80.53;;;30.57;;
7729;SDS011;3908;52.310;7.230;2022-12-16T16:59:41;84.57;;;33.17;;
7729;SDS011;3908;52.310;7.230;2022-12-16T17:02:46;87.90;;;34.33;;
7729;SDS011;3908;52.310;7.230;2022-12-16T17:05:51;100.30;;;32.70;;
7729;SDS011;3908;52.310;7.230;2022-12-16T17:08:55;89.30;;;31.30;;
7729;SDS011;3908;52.310;7.230;2022-12-16T17:12:00;95.00;;;35.07;;
7729;SDS011;3908;52.310;7.230;2022-12-16T17:15:11;93.53;;;33.00;;
7729;SDS011;3908;52.310;7.230;2022-12-16T17:18:20;84.70;;;31.93;;
7729;SDS011;3908;52.310;7.230;2022-12-16T17:21:25;88.47;;;32.57;;
7729;SDS011;3908;52.310;7.230;2022-12-16T17:24:30;89.77;;;33.97;;
7729;SDS011;3908;52.310;7.230;2022-12-16T17:27:35;102.20;;;33.73;;
7729;SDS011;3908;52.310;7.230;2022-12-16T17:30:40;94.63;;;33.70;;
7729;SDS011;3908;52.310;7.230;2022-12-16T17:33:47;99.90;;;34.43;;
7729;SDS011;3908;52.310;7.230;2022-12-16T17:36:52;101.70;;;34.67;;
7729;SDS011;3908;52.310;7.230;2022-12-16T17:39:56;92.07;;;34.20;;
7729;SDS011;3908;52.310;7.230;2022-12-16T17:43:06;104.30;;;34.60;;
7729;SDS011;3908;52.310;7.230;2022-12-16T17:46:19;94.27;;;32.70;;
7729;SDS011;3908;52.310;7.230;2022-12-16T17:49:29;98.83;;;35.13;;
7729;SDS011;3908;52.310;7.230;2022-12-16T17:52:34;112.70;;;37.57;;
7729;SDS011;3908;52.310;7.230;2022-12-16T17:55:38;103.73;;;36.67;;
7729;SDS011;3908;52.310;7.230;2022-12-16T17:58:42;99.73;;;35.30;;
7729;SDS011;3908;52.310;7.230;2022-12-16T18:01:47;111.63;;;36.03;;
7729;SDS011;3908;52.310;7.230;2022-12-16T18:04:53;103.53;;;35.87;;
7729;SDS011;3908;52.310;7.230;2022-12-16T18:07:58;97.93;;;34.10;;
7729;SDS011;3908;52.310;7.230;2022-12-16T18:11:02;100.40;;;32.07;;
7729;SDS011;3908;52.310;7.230;2022-12-16T18:14:09;107.37;;;34.87;;
7729;SDS011;3908;52.310;7.230;2022-12-16T18:17:16;101.47;;;33.83;;
7729;SDS011;3908;52.310;7.230;2022-12-16T18:20:22;109.47;;;36.13;;
7729;SDS011;3908;52.310;7.230;2022-12-16T18:23:28;114.03;;;34.23;;
7729;SDS011;3908;52.310;7.230;2022-12-16T18:26:32;98.97;;;34.10;;
7729;SDS011;3908;52.310;7.230;2022-12-16T18:29:37;103.57;;;35.30;;